Time;durP1;ratioP1;P1;durP2;ratioP2;P2;SDS_P1;SDS_P2;PMS_P1;PMS_P2;Temp;Humidity;BMP_temperature;BMP_pressure;BME280_temperature;BME280_humidity;BME280_pressure;Samples;Min_cycle;Max_cycle;Signal;HPM_P1;HPM_P2
2022/03/11 00:00:04;;;;;;;1.45;0.90;;;18.00;25.30;20.50;93995.00;;;;10271932;28;45687;-60
2022/03/11 00:05:06;;;;;;;1.15;0.90;;;18.00;25.30;20.50;93981.00;;;;10255913;28;48361;-61
2022/03/11 00:10:07;;;;;;;1.38;1.00;;;18.00;25.30;20.50;93991.00;;;;10271097;28;47467;-61
2022/03/11 00:15:08;;;;;;;2.78;0.98;;;18.00;25.30;20.50;93966.00;;;;10271446;28;45491;-61
2022/03/11 00:20:10;;;;;;;1.50;1.00;;;18.00;25.30;20.50;93959.00;;;;10271319;28;45157;-61
2022/03/11 00:25:10;;;;;;;1.23;0.93;;;18.00;25.00;20.50;93965.00;;;;10253694;28;48327;-61
2022/03/11 00:30:11;;;;;;;1.45;1.10;;;18.00;25.20;20.50;93980.00;;;;10255162;28;47094;-59
2022/03/11 00:35:12;;;;;;;1.25;0.80;;;18.00;25.20;20.50;93974.00;;;;10271961;28;46392;-59
2022/03/11 00:40:14;;;;;;;1.85;0.90;;;18.00;25.20;20.50;93972.00;;;;10271833;28;45352;-61
2022/03/11 00:45:14;;;;;;;1.73;1.10;;;18.00;25.20;20.50;93969.00;;;;10271411;28;45386;-59
2022/03/11 00:50:15;;;;;;;1.95;0.70;;;18.00;25.20;20.50;93965.00;;;;10272393;28;46278;-61
2022/03/11 00:55:16;;;;;;;1.33;0.95;;;18.00;25.00;20.50;93955.00;;;;10271317;28;45453;-59
2022/03/11 01:00:17;;;;;;;1.98;1.00;;;18.00;25.20;20.50;93953.00;;;;10272182;28;45246;-61
2022/03/11 01:05:17;;;;;;;2.22;0.90;;;18.00;25.10;20.50;93967.00;;;;10270883;28;45648;-60
2022/03/11 01:10:19;;;;;;;1.55;0.77;;;17.90;25.10;20.50;93949.00;;;;10271114;28;45473;-61
2022/03/11 01:15:20;;;;;;;1.65;0.98;;;18.00;25.10;20.50;93929.00;;;;10253219;28;47394;-61
2022/03/11 01:20:20;;;;;;;1.35;1.00;;;18.00;25.10;20.50;93960.00;;;;10270760;28;46216;-60
2022/03/11 01:25:21;;;;;;;1.50;0.82;;;18.00;25.10;20.50;93959.00;;;;10270336;28;45367;-59
2022/03/11 01:30:21;;;;;;;1.60;1.08;;;17.90;25.10;20.50;93935.00;;;;10269740;28;45540;-61
2022/03/11 01:35:23;;;;;;;1.42;0.93;;;17.90;25.10;20.40;93948.00;;;;10253738;28;47724;-62
2022/03/11 01:40:24;;;;;;;2.28;1.00;;;17.90;25.00;20.50;93947.00;;;;10277630;28;45358;-61
2022/03/11 01:45:25;;;;;;;1.75;0.80;;;17.90;25.10;20.50;93957.00;;;;10260177;28;46590;-61
2022/03/11 01:50:25;;;;;;;1.20;1.05;;;17.90;25.00;20.50;93951.00;;;;10277611;28;45387;-60
2022/03/11 01:55:26;;;;;;;1.67;1.05;;;17.90;25.10;20.50;93949.00;;;;10276481;28;45388;-60
2022/03/11 02:00:27;;;;;;;1.50;0.80;;;17.90;25.00;20.40;93949.00;;;;10273203;28;45197;-61
2022/03/11 02:05:28;;;;;;;1.00;0.90;;;17.90;24.90;20.40;93945.00;;;;10273896;28;45530;-60
2022/03/11 02:10:30;;;;;;;1.65;1.10;;;17.90;25.00;20.40;93930.00;;;;10276445;28;45184;-60
2022/03/11 02:20:33;;;;;;;1.50;0.90;;;17.90;25.00;20.40;93933.00;;;;10351064;23;45507;-61
2022/03/11 02:25:35;;;;;;;2.40;1.00;;;17.90;25.00;20.40;93912.00;;;;10329959;28;45456;-62
2022/03/11 02:30:36;;;;;;;1.50;1.00;;;17.90;25.00;20.40;93913.00;;;;10314724;28;46002;-60
2022/03/11 02:35:36;;;;;;;1.33;0.90;;;17.80;24.90;20.40;93932.00;;;;10315420;28;45266;-61
2022/03/11 02:40:37;;;;;;;1.60;1.20;;;17.90;24.90;20.40;93912.00;;;;10316032;28;45575;-60
2022/03/11 02:45:38;;;;;;;1.58;1.00;;;17.90;24.90;20.40;93929.00;;;;10314898;28;45766;-61
2022/03/11 02:50:38;;;;;;;1.60;1.10;;;17.90;24.90;20.40;93910.00;;;;10313543;28;45439;-62
2022/03/11 02:55:39;;;;;;;1.83;1.20;;;17.90;24.90;20.40;93932.00;;;;10313481;28;45767;-60
2022/03/11 03:00:40;;;;;;;1.52;1.10;;;17.80;24.90;20.40;93930.00;;;;10313714;28;45257;-60
2022/03/11 03:05:41;;;;;;;1.60;0.88;;;17.80;24.80;20.40;93928.00;;;;10312753;28;48513;-61
2022/03/11 03:10:41;;;;;;;1.40;1.00;;;17.80;24.80;20.40;93915.00;;;;10313225;28;45960;-60
2022/03/11 03:15:42;;;;;;;1.55;1.00;;;17.80;24.80;20.40;93921.00;;;;10312670;28;46092;-60
2022/03/11 03:20:43;;;;;;;1.55;1.13;;;17.80;24.80;20.30;93916.00;;;;10312622;28;45357;-60
2022/03/11 03:25:43;;;;;;;2.00;1.00;;;17.90;24.70;20.30;93915.00;;;;10312887;28;45750;-61
2022/03/11 03:30:44;;;;;;;1.60;1.17;;;17.80;24.70;20.30;93906.00;;;;10313074;28;46414;-62
2022/03/11 03:35:45;;;;;;;1.95;1.15;;;17.80;24.70;20.30;93921.00;;;;10313514;28;45475;-60
2022/03/11 03:40:45;;;;;;;1.80;1.17;;;17.80;24.70;20.30;93914.00;;;;10312682;28;45372;-61
2022/03/11 03:45:46;;;;;;;1.77;1.00;;;17.80;24.70;20.30;93922.00;;;;10313303;28;46719;-62
2022/03/11 03:50:47;;;;;;;1.80;1.08;;;17.80;24.70;20.30;93919.00;;;;10313564;28;45168;-60
2022/03/11 03:55:47;;;;;;;1.85;1.30;;;17.80;24.70;20.30;93910.00;;;;10312670;28;45294;-61
2022/03/11 04:00:48;;;;;;;1.70;1.13;;;17.80;24.60;20.30;93906.00;;;;10312005;28;45389;-60
2022/03/11 04:05:49;;;;;;;1.92;1.00;;;17.80;24.60;20.30;93900.00;;;;10311631;28;45262;-62
2022/03/11 04:10:50;;;;;;;1.00;0.90;;;17.80;24.60;20.30;93910.00;;;;10312811;28;45214;-60
2022/03/11 04:15:50;;;;;;;1.50;1.10;;;17.80;24.60;20.30;93894.00;;;;10311847;28;45167;-60
2022/03/11 04:20:51;;;;;;;1.35;1.00;;;17.80;24.60;20.30;93913.00;;;;10311232;28;45649;-60
2022/03/11 04:25:52;;;;;;;1.88;1.20;;;17.80;24.70;20.30;93928.00;;;;10310926;28;45344;-62
2022/03/11 04:30:52;;;;;;;1.50;1.20;;;17.80;24.70;20.30;93914.00;;;;10311397;28;45292;-60
2022/03/11 04:35:53;;;;;;;1.83;1.20;;;17.80;24.60;20.30;93916.00;;;;10293870;28;47771;-61
2022/03/11 04:40:54;;;;;;;1.90;1.15;;;17.80;24.50;20.30;93922.00;;;;10311203;28;45501;-62
2022/03/11 04:45:54;;;;;;;2.28;1.30;;;17.80;24.60;20.30;93911.00;;;;10311877;28;45117;-60
2022/03/11 04:50:56;;;;;;;2.28;1.13;;;17.80;24.60;20.30;93902.00;;;;10310691;28;45300;-60
2022/03/11 04:55:56;;;;;;;2.35;1.10;;;17.80;24.50;20.30;93909.00;;;;10309478;28;47276;-62
2022/03/11 05:00:57;;;;;;;2.25;1.50;;;17.80;24.50;20.30;93893.00;;;;10310201;28;45387;-61
2022/03/11 05:05:58;;;;;;;1.80;1.30;;;17.80;24.50;20.30;93903.00;;;;10310803;28;45357;-61
2022/03/11 05:10:58;;;;;;;4.05;1.40;;;17.80;24.60;20.40;93896.00;;;;10311107;28;45280;-61
2022/03/11 05:15:59;;;;;;;2.58;1.42;;;17.80;24.50;20.40;93906.00;;;;10316303;28;46678;-60
2022/03/11 05:21:00;;;;;;;1.65;1.25;;;17.90;24.50;20.40;93906.00;;;;10300702;28;47286;-61
2022/03/11 05:26:02;;;;;;;2.30;1.42;;;18.00;24.50;20.50;93909.00;;;;10299651;28;47319;-60
2022/03/11 05:31:03;;;;;;;1.92;1.20;;;18.00;24.50;20.50;93904.00;;;;10317045;28;45393;-60
2022/03/11 05:36:04;;;;;;;2.28;1.40;;;18.00;24.40;20.50;93891.00;;;;10299862;28;48533;-62
2022/03/11 05:41:04;;;;;;;1.98;1.33;;;18.00;24.40;20.50;93895.00;;;;10316475;28;45254;-60
2022/03/11 05:46:05;;;;;;;1.92;1.60;;;18.00;24.30;20.60;93897.00;;;;10315875;28;45651;-60
2022/03/11 05:51:07;;;;;;;1.77;1.30;;;18.10;24.20;20.50;93894.00;;;;10316109;28;45183;-60
2022/03/11 05:56:08;;;;;;;2.63;1.40;;;18.10;24.30;20.50;93906.00;;;;10315733;28;45337;-60
2022/03/11 06:01:08;;;;;;;2.10;1.48;;;18.00;24.20;20.50;93906.00;;;;10317042;28;46518;-62
2022/03/11 06:06:09;;;;;;;2.58;1.35;;;18.00;24.20;20.50;93905.00;;;;10315032;28;46961;-62
2022/03/11 06:11:10;;;;;;;2.65;1.30;;;18.00;24.20;20.50;93905.00;;;;10316805;28;45157;-60
2022/03/11 06:16:10;;;;;;;2.42;1.50;;;18.00;24.10;20.50;93915.00;;;;10297959;28;46925;-60
2022/03/11 06:21:11;;;;;;;2.20;1.40;;;18.00;24.10;20.50;93919.00;;;;10315264;28;46484;-62
2022/03/11 06:26:12;;;;;;;2.60;1.58;;;17.90;24.10;20.50;93912.00;;;;10297100;28;47131;-60
2022/03/11 06:31:12;;;;;;;1.73;1.40;;;18.00;24.10;20.50;93911.00;;;;10314733;28;45502;-60
2022/03/11 06:36:13;;;;;;;2.60;1.70;;;18.00;24.20;20.50;93915.00;;;;10320289;28;45567;-61
2022/03/11 06:41:14;;;;;;;2.38;1.50;;;18.00;24.20;20.50;93919.00;;;;10315002;28;45574;-61
2022/03/11 06:46:15;;;;;;;2.65;1.33;;;18.00;24.10;20.50;93911.00;;;;10313585;28;47182;-61
2022/03/11 06:51:16;;;;;;;2.25;1.50;;;18.00;24.70;20.50;93928.00;;;;10315794;28;45422;-61
2022/03/11 06:56:17;;;;;;;2.47;1.50;;;18.10;24.30;20.60;93929.00;;;;10312914;28;47088;-61
2022/03/11 07:01:18;;;;;;;2.53;1.50;;;18.10;24.20;20.50;93928.00;;;;10313791;28;47105;-61
2022/03/11 07:06:18;;;;;;;2.28;1.50;;;18.10;24.20;20.60;93932.00;;;;10312765;28;47290;-62
2022/03/11 07:11:19;;;;;;;1.88;1.30;;;18.00;24.20;20.60;93936.00;;;;10314692;28;46313;-61
2022/03/11 07:16:20;;;;;;;1.60;1.25;;;18.10;24.10;20.60;93921.00;;;;10313985;28;45194;-60
2022/03/11 07:21:20;;;;;;;2.65;1.60;;;18.10;24.20;20.50;93947.00;;;;10314480;28;45384;-59
2022/03/11 07:26:21;;;;;;;1.63;1.30;;;18.10;24.20;20.60;93927.00;;;;10312009;28;47415;-61
2022/03/11 07:31:22;;;;;;;1.92;1.30;;;18.00;24.10;20.60;93954.00;;;;10326143;28;46345;-61
2022/03/11 07:36:23;;;;;;;2.53;1.60;;;18.10;24.20;20.50;93938.00;;;;10319412;28;45317;-60
2022/03/11 07:41:26;;;;;;;2.28;1.52;;;18.00;23.90;20.50;93962.00;;;;10298260;28;45443;-62
2022/03/11 07:46:29;;;;;;;2.70;1.55;;;18.00;23.90;20.50;93950.00;;;;10330762;28;46452;-60
2022/03/11 07:51:30;;;;;;;2.35;1.40;;;18.10;24.30;20.60;93976.00;;;;10335358;28;46360;-62
2022/03/11 07:56:31;;;;;;;1.98;1.40;;;18.10;24.30;20.60;93965.00;;;;10353851;28;45474;-62
2022/03/11 08:01:32;;;;;;;2.53;1.55;;;18.10;24.20;20.60;93979.00;;;;10353443;28;45568;-60
2022/03/11 08:06:33;;;;;;;1.75;1.30;;;18.10;24.20;20.60;93971.00;;;;10350287;28;46396;-60
2022/03/11 08:11:34;;;;;;;2.78;1.80;;;18.10;24.20;20.60;93965.00;;;;10351657;28;45126;-61
2022/03/11 08:16:34;;;;;;;5.15;2.00;;;18.10;24.20;20.60;93948.00;;;;10349481;28;45727;-59
2022/03/11 08:21:35;;;;;;;3.95;1.60;;;18.10;24.20;20.60;93932.00;;;;10337558;28;46295;-60
2022/03/11 08:26:36;;;;;;;2.78;1.50;;;18.10;24.30;20.60;93939.00;;;;10310892;28;45207;-60
2022/03/11 08:31:37;;;;;;;4.80;1.33;;;18.10;24.30;20.60;93949.00;;;;10311553;28;46738;-61
2022/03/11 08:36:39;;;;;;;2.05;1.52;;;18.20;24.40;20.60;93951.00;;;;10311402;28;46181;-61
2022/03/11 08:41:40;;;;;;;3.03;1.42;;;18.10;24.40;20.60;93947.00;;;;10311173;28;45310;-60
2022/03/11 08:46:41;;;;;;;2.72;1.55;;;18.10;24.40;20.60;93940.00;;;;10309170;28;47265;-61
2022/03/11 08:51:43;;;;;;;3.58;1.52;;;18.10;24.40;20.60;93946.00;;;;10310762;28;45536;-60
2022/03/11 08:56:43;;;;;;;3.35;2.13;;;18.10;24.40;20.40;93939.00;;;;10311289;28;45333;-61
2022/03/11 09:01:44;;;;;;;7.45;2.50;;;18.00;23.20;20.40;93936.00;;;;10311600;28;46526;-61
2022/03/11 09:06:45;;;;;;;5.88;2.80;;;17.90;23.30;20.30;93934.00;;;;10293263;28;47755;-60
2022/03/11 09:11:45;;;;;;;2.97;2.00;;;17.80;23.50;20.30;93939.00;;;;10310301;28;45202;-60
2022/03/11 09:16:46;;;;;;;3.72;2.35;;;17.70;24.20;20.30;93930.00;;;;10309265;28;45715;-60
2022/03/11 09:21:47;;;;;;;5.63;2.55;;;17.80;23.80;20.40;93920.00;;;;10310047;28;45396;-60
2022/03/11 09:26:49;;;;;;;5.70;2.80;;;17.90;23.70;20.40;93922.00;;;;10309175;28;45205;-60
2022/03/11 09:31:50;;;;;;;3.90;2.70;;;17.80;23.40;20.30;93921.00;;;;10309078;28;47246;-60
2022/03/11 09:36:54;;;;;;;4.35;2.55;;;17.80;23.20;20.30;93922.00;;;;10292916;28;46860;-61
2022/03/11 09:41:55;;;;;;;4.47;2.40;;;17.70;23.60;20.40;93901.00;;;;10309977;28;45553;-59
2022/03/11 09:46:57;;;;;;;7.15;2.67;;;17.90;23.90;20.50;93883.00;;;;10309370;28;47164;-60
2022/03/11 09:51:57;;;;;;;5.38;2.13;;;18.00;23.90;20.60;93898.00;;;;10310024;28;45579;-60
2022/03/11 09:56:58;;;;;;;5.53;2.30;;;18.10;23.90;20.60;93897.00;;;;10309386;28;46662;-60
2022/03/11 10:01:59;;;;;;;5.07;2.28;;;18.10;23.90;20.60;93896.00;;;;10331961;28;45466;-60
2022/03/11 10:07:00;;;;;;;5.50;2.90;;;18.10;24.00;20.50;93901.00;;;;10348147;28;46816;-60
2022/03/11 10:12:01;;;;;;;8.10;2.65;;;18.00;23.60;20.50;93891.00;;;;10356235;28;47519;-59
2022/03/11 10:17:04;;;;;;;6.55;2.47;;;18.00;23.90;20.50;93894.00;;;;10347272;28;45449;-60
2022/03/11 10:22:05;;;;;;;9.75;2.72;;;17.90;24.20;20.50;93889.00;;;;10315800;28;46236;-61
2022/03/11 10:27:07;;;;;;;10.02;2.35;;;18.00;24.30;20.60;93873.00;;;;10315343;28;45186;-61
2022/03/11 10:32:08;;;;;;;10.50;2.90;;;18.00;24.30;20.60;93887.00;;;;10315689;28;45148;-61
2022/03/11 10:37:12;;;;;;;11.00;3.40;;;18.10;24.40;20.50;93871.00;;;;10350754;28;45461;-61
2022/03/11 10:42:19;;;;;;;14.25;3.33;;;18.00;24.70;20.60;93869.00;;;;10339663;28;47231;-60
2022/03/11 10:47:21;;;;;;;12.07;3.00;;;18.10;24.70;20.60;93868.00;;;;10337077;28;45429;-61
2022/03/11 10:52:43;;;;;;;12.55;3.15;;;18.10;24.70;20.60;93872.00;;;;10309517;28;46413;-60
2022/03/11 10:57:45;;;;;;;13.00;3.50;;;18.20;25.60;20.60;93872.00;;;;10314373;28;45490;-61
2022/03/11 11:02:48;;;;;;;15.02;3.78;;;18.20;25.10;20.70;93857.00;;;;10314469;28;45209;-61
2022/03/11 11:07:51;;;;;;;9.60;2.97;;;18.20;25.20;20.70;93853.00;;;;10319291;28;46454;-62
2022/03/11 11:12:52;;;;;;;14.45;3.05;;;18.20;25.10;20.70;93845.00;;;;10354384;28;45421;-61
2022/03/11 11:17:53;;;;;;;8.25;3.05;;;18.20;25.10;20.80;93839.00;;;;10353500;28;45256;-60
2022/03/11 11:22:54;;;;;;;9.05;2.88;;;18.20;25.20;20.80;93841.00;;;;10354523;28;47006;-61
2022/03/11 11:28:01;;;;;;;6.07;2.60;;;18.30;25.20;20.80;93825.00;;;;10337031;28;47107;-60
2022/03/11 11:33:01;;;;;;;7.30;2.78;;;18.30;25.20;20.80;93814.00;;;;10353522;28;45625;-61
2022/03/11 11:38:07;;;;;;;8.73;2.83;;;18.30;25.20;20.90;93808.00;;;;10352206;28;47616;-59
2022/03/11 11:43:13;;;;;;;7.82;2.90;;;18.40;25.20;20.90;93803.00;;;;10354207;28;46441;-61
2022/03/11 11:48:41;;;;;;;6.78;2.60;;;18.40;25.20;20.90;93790.00;;;;10354428;28;46385;-61
2022/03/11 11:53:53;;;;;;;4.80;2.42;;;18.40;25.20;20.90;93783.00;;;;10354312;28;45272;-60
2022/03/11 11:58:56;;;;;;;10.68;3.45;;;18.40;25.20;20.90;93786.00;;;;10352702;28;45222;-60
2022/03/11 12:03:57;;;;;;;4.30;2.30;;;18.40;25.20;20.90;93767.00;;;;10335929;28;46991;-60
2022/03/11 12:08:57;;;;;;;5.43;2.78;;;18.40;25.20;20.90;93774.00;;;;10320117;28;47263;-60
2022/03/11 12:14:01;;;;;;;5.93;2.85;;;18.40;25.50;20.90;93763.00;;;;10313066;28;46746;-60
2022/03/11 12:19:03;;;;;;;6.55;3.10;;;18.40;25.50;20.90;93773.00;;;;10323861;28;46368;-60
2022/03/11 12:24:35;;;;;;;5.88;2.85;;;18.50;25.50;20.90;93748.00;;;;10321435;28;48487;-60
2022/03/11 12:29:37;;;;;;;4.60;2.80;;;18.40;25.50;20.90;93754.00;;;;10294435;28;46068;-60
2022/03/11 12:34:38;;;;;;;5.10;2.83;;;18.40;25.50;20.90;93749.00;;;;10292025;28;45365;-60
2022/03/11 12:39:39;;;;;;;4.15;2.72;;;18.50;25.50;20.90;93740.00;;;;10291297;28;46355;-61
2022/03/11 12:44:47;;;;;;;5.18;2.75;;;18.40;25.40;20.90;93727.00;;;;10303549;28;46258;-61
2022/03/11 12:50:00;;;;;;;4.93;2.70;;;18.40;25.40;20.90;93715.00;;;;10349864;28;45197;-61
2022/03/11 12:55:01;;;;;;;5.70;2.97;;;18.40;25.40;20.90;93701.00;;;;10353027;28;46589;-60
2022/03/11 13:00:02;;;;;;;4.85;2.80;;;18.50;25.50;20.90;93709.00;;;;10350888;28;45375;-59
2022/03/11 13:05:24;;;;;;;5.80;2.85;;;18.40;25.50;20.90;93697.00;;;;10351839;28;45311;-60
2022/03/11 13:10:26;;;;;;;4.10;2.28;;;18.40;25.50;20.90;93707.00;;;;10324344;28;45366;-60
2022/03/11 13:15:31;;;;;;;6.30;2.60;;;18.40;25.50;20.90;93714.00;;;;10320728;28;45362;-60
2022/03/11 13:20:40;;;;;;;5.53;2.43;;;18.40;25.50;20.90;93716.00;;;;10350312;28;45466;-59
2022/03/11 13:26:04;;;;;;;5.30;2.83;;;18.40;25.40;20.90;93713.00;;;;10333938;28;47343;-60
2022/03/11 13:31:23;;;;;;;4.88;2.90;;;18.40;25.40;20.90;93712.00;;;;10351266;28;45205;-61
2022/03/11 13:36:35;;;;;;;5.43;2.90;;;18.40;25.40;20.90;93713.00;;;;10356586;28;47819;-61
2022/03/11 13:41:46;;;;;;;4.78;2.78;;;18.40;25.50;20.90;93728.00;;;;10341245;28;48335;-60
2022/03/11 13:47:02;;;;;;;5.35;2.72;;;18.40;25.40;20.90;93731.00;;;;10357314;28;45179;-60
2022/03/11 13:52:05;;;;;;;4.77;2.57;;;18.40;25.50;20.90;93725.00;;;;10357468;28;46014;-60
2022/03/11 13:57:16;;;;;;;5.32;2.58;;;18.40;25.50;20.80;93717.00;;;;10356075;28;46603;-60
2022/03/11 14:02:20;;;;;;;5.38;3.33;;;18.30;25.50;20.80;93718.00;;;;10358521;28;45158;-60
2022/03/11 14:07:24;;;;;;;5.03;2.80;;;18.30;25.30;20.80;93702.00;;;;10357406;28;45588;-60
2022/03/11 14:12:27;;;;;;;6.40;2.78;;;18.40;25.40;20.90;93705.00;;;;10356837;28;45218;-60
2022/03/11 14:17:31;;;;;;;5.88;2.58;;;18.40;25.40;20.90;93706.00;;;;10369741;23;46476;-61
2022/03/11 14:22:32;;;;;;;6.47;3.35;;;18.40;25.00;20.80;93719.00;;;;10330138;28;45218;-61
2022/03/11 14:27:33;;;;;;;8.45;3.50;;;18.30;24.90;20.80;93702.00;;;;10331136;28;46193;-62
2022/03/11 14:32:35;;;;;;;8.98;3.63;;;18.30;24.90;20.80;93719.00;;;;10314846;28;46559;-62
2022/03/11 14:37:36;;;;;;;16.40;3.35;;;18.30;24.80;20.80;93706.00;;;;10314365;28;45479;-62
2022/03/11 14:42:38;;;;;;;10.70;3.72;;;18.30;25.00;20.80;93706.00;;;;10315700;28;45215;-62
2022/03/11 14:47:41;;;;;;;11.65;3.65;;;18.30;24.90;20.80;93699.00;;;;10296135;28;48232;-62
2022/03/11 14:52:44;;;;;;;10.75;4.50;;;18.30;24.90;20.80;93694.00;;;;10298634;28;47749;-61
2022/03/11 14:57:45;;;;;;;8.00;4.15;;;18.30;24.50;20.70;93679.00;;;;10314762;28;46500;-61
2022/03/11 15:02:46;;;;;;;10.32;3.67;;;18.20;24.90;20.70;93671.00;;;;10314983;28;47240;-62
2022/03/11 15:07:47;;;;;;;9.40;4.90;;;18.30;24.60;20.70;93665.00;;;;10313008;28;45318;-61
2022/03/11 15:12:52;;;;;;;11.25;4.03;;;18.20;24.30;20.70;93675.00;;;;10295242;28;47494;-61
2022/03/11 15:17:53;;;;;;;9.68;4.85;;;18.20;24.20;20.70;93682.00;;;;10311107;28;46269;-61
2022/03/11 15:22:53;;;;;;;8.93;4.22;;;18.20;24.40;20.70;93663.00;;;;10313490;28;47233;-62
2022/03/11 15:27:55;;;;;;;8.80;4.38;;;18.10;24.00;20.60;93650.00;;;;10313531;28;47745;-62
2022/03/11 15:32:58;;;;;;;6.35;3.53;;;18.20;23.90;20.70;93656.00;;;;10313864;28;47572;-62
2022/03/11 15:37:58;;;;;;;7.20;3.60;;;18.20;24.10;20.70;93653.00;;;;10316247;28;46695;-62
2022/03/11 15:43:00;;;;;;;5.82;3.33;;;18.20;24.30;20.80;93670.00;;;;10330075;28;47068;-62
2022/03/11 15:48:02;;;;;;;4.90;2.90;;;18.30;24.40;20.80;93656.00;;;;10272390;28;47842;-62
2022/03/11 15:53:05;;;;;;;5.85;3.20;;;18.40;24.40;20.80;93655.00;;;;10273280;28;45259;-62
2022/03/11 15:58:05;;;;;;;4.63;2.80;;;18.40;24.20;20.90;93650.00;;;;10272577;28;45342;-62
2022/03/11 16:03:06;;;;;;;7.93;3.20;;;18.40;24.50;20.80;93649.00;;;;10289032;28;47318;-61
2022/03/11 16:08:07;;;;;;;6.00;3.05;;;18.40;24.10;20.90;93649.00;;;;10305283;28;47273;-64
2022/03/11 16:13:08;;;;;;;10.77;2.80;;;18.40;24.90;21.00;93649.00;;;;10353144;28;45349;-63
2022/03/11 16:18:09;;;;;;;10.10;3.08;;;18.50;24.70;21.00;93640.00;;;;10353993;28;45428;-64
2022/03/11 16:23:10;;;;;;;6.18;2.85;;;18.50;24.70;21.00;93644.00;;;;10336526;28;48218;-63
2022/03/11 16:28:11;;;;;;;4.78;2.47;;;18.50;24.80;21.00;93641.00;;;;10353139;28;46142;-64
2022/03/11 16:33:11;;;;;;;5.10;2.67;;;18.60;24.90;21.00;93648.00;;;;10352371;28;46544;-63
2022/03/11 16:38:12;;;;;;;3.38;2.20;;;18.50;24.90;21.00;93657.00;;;;10352660;28;48013;-63
2022/03/11 16:43:13;;;;;;;5.50;2.20;;;18.60;25.00;21.00;93668.00;;;;10352040;28;45634;-63
2022/03/11 16:48:13;;;;;;;4.38;2.35;;;18.60;25.00;20.70;93667.00;;;;10350764;28;45548;-63
2022/03/11 16:53:14;;;;;;;5.68;3.50;;;18.30;24.90;20.70;93654.00;;;;10351143;28;47254;-63
2022/03/11 16:58:15;;;;;;;5.60;3.42;;;18.20;23.80;20.80;93674.00;;;;10334349;28;46923;-63
2022/03/11 17:03:16;;;;;;;5.28;3.05;;;18.30;24.30;20.80;93677.00;;;;10318225;28;45433;-63
2022/03/11 17:08:19;;;;;;;5.57;3.10;;;18.30;24.30;20.80;93657.00;;;;10312952;28;45510;-63
2022/03/11 17:13:20;;;;;;;5.78;3.00;;;18.30;24.60;20.90;93681.00;;;;10317623;28;47980;-63
2022/03/11 17:18:21;;;;;;;3.80;2.50;;;18.30;24.80;20.90;93687.00;;;;10316660;28;47196;-63
2022/03/11 17:23:22;;;;;;;4.22;2.58;;;18.30;24.80;20.90;93689.00;;;;10319347;28;45617;-62
2022/03/11 17:28:22;;;;;;;3.22;2.17;;;18.40;24.80;20.90;93679.00;;;;10318306;28;45151;-62
2022/03/11 17:33:23;;;;;;;3.72;2.42;;;18.40;24.90;20.90;93688.00;;;;10355175;28;45435;-63
2022/03/11 17:38:25;;;;;;;3.90;2.67;;;18.30;24.90;20.90;93693.00;;;;10331241;28;45617;-63
2022/03/11 17:43:26;;;;;;;5.35;3.00;;;18.40;24.90;20.90;93692.00;;;;10326512;28;45316;-63
2022/03/11 17:48:26;;;;;;;5.00;2.78;;;18.40;24.90;20.90;93694.00;;;;10301756;28;45469;-63
2022/03/11 17:53:28;;;;;;;4.18;2.90;;;18.30;24.90;20.90;93695.00;;;;10336818;28;45529;-62
2022/03/11 17:58:30;;;;;;;4.85;2.92;;;18.30;25.00;20.90;93705.00;;;;10315503;28;47991;-62
2022/03/11 18:03:30;;;;;;;4.57;2.80;;;18.40;25.00;20.90;93703.00;;;;10316342;28;45399;-63
2022/03/11 18:08:31;;;;;;;4.57;3.13;;;18.40;25.00;20.90;93688.00;;;;10316439;28;45672;-63
2022/03/11 18:13:32;;;;;;;3.67;2.80;;;18.30;25.00;20.90;93713.00;;;;10315527;28;47623;-62
2022/03/11 18:18:33;;;;;;;3.90;3.00;;;18.40;25.10;20.90;93704.00;;;;10350895;28;45305;-62
2022/03/11 18:23:34;;;;;;;4.28;3.15;;;18.40;24.70;20.90;93704.00;;;;10358122;28;45403;-62
2022/03/11 18:28:35;;;;;;;4.97;3.40;;;18.30;24.70;20.80;93706.00;;;;10355479;28;46120;-63
2022/03/11 18:33:35;;;;;;;5.97;3.40;;;18.30;24.90;20.80;93691.00;;;;10355963;28;45433;-63
2022/03/11 18:38:37;;;;;;;6.20;3.65;;;18.30;24.80;20.80;93683.00;;;;10338749;28;46976;-62
2022/03/11 18:43:38;;;;;;;4.95;3.38;;;18.30;24.80;20.80;93698.00;;;;10355900;28;45153;-63
2022/03/11 18:48:41;;;;;;;4.95;3.17;;;18.30;24.80;20.80;93699.00;;;;10353476;28;45302;-62
2022/03/11 18:53:41;;;;;;;5.53;3.20;;;18.30;25.00;20.90;93693.00;;;;10325744;28;46226;-62
2022/03/11 18:58:42;;;;;;;6.70;3.35;;;18.30;24.90;20.90;93692.00;;;;10321816;28;47432;-64
2022/03/11 19:03:43;;;;;;;4.13;2.80;;;18.30;25.00;20.90;93695.00;;;;10321762;28;46366;-61
2022/03/11 19:08:47;;;;;;;6.97;3.00;;;18.30;25.00;20.90;93698.00;;;;10322189;28;45432;-63
2022/03/11 19:13:49;;;;;;;5.45;3.05;;;18.40;25.10;20.90;93702.00;;;;10299681;28;48048;-63
2022/03/11 19:18:49;;;;;;;5.22;2.80;;;18.30;25.10;20.90;93694.00;;;;10311068;28;45498;-63
2022/03/11 19:23:50;;;;;;;4.68;2.92;;;18.40;25.10;20.90;93699.00;;;;10313631;28;48227;-62
2022/03/11 19:28:51;;;;;;;3.92;2.70;;;18.40;25.10;20.90;93702.00;;;;10314476;28;45168;-63
2022/03/11 19:33:52;;;;;;;5.10;3.38;;;18.30;25.10;20.90;93700.00;;;;10312508;28;45485;-62
2022/03/11 19:38:53;;;;;;;3.83;2.70;;;18.40;25.20;20.90;93693.00;;;;10312761;28;46991;-62
2022/03/11 19:43:55;;;;;;;4.90;2.97;;;18.40;25.20;20.90;93708.00;;;;10313060;28;45670;-63
2022/03/11 19:48:55;;;;;;;3.95;2.80;;;18.40;25.20;20.90;93718.00;;;;10312071;28;47170;-63
2022/03/11 19:53:58;;;;;;;4.53;2.72;;;18.30;25.20;20.90;93716.00;;;;10312853;28;45300;-62
2022/03/11 19:58:59;;;;;;;4.32;3.00;;;18.30;25.20;20.90;93717.00;;;;10313600;28;45172;-63
2022/03/11 20:04:00;;;;;;;4.55;2.88;;;18.30;25.20;20.90;93714.00;;;;10312746;28;46743;-63
2022/03/11 20:09:04;;;;;;;5.75;3.40;;;18.30;25.30;20.90;93734.00;;;;10312064;28;45330;-63
2022/03/11 20:14:11;;;;;;;4.38;2.75;;;18.30;25.30;20.90;93728.00;;;;10312287;28;45621;-62
2022/03/11 20:19:12;;;;;;;3.70;2.50;;;18.30;25.30;20.90;93750.00;;;;10334656;23;45548;-62
2022/03/11 20:24:12;;;;;;;4.65;3.08;;;18.30;25.30;20.90;93760.00;;;;10310568;28;47257;-62
2022/03/11 20:29:14;;;;;;;5.32;3.03;;;18.30;25.30;20.90;93747.00;;;;10294585;28;47529;-62
2022/03/11 20:34:15;;;;;;;3.80;2.63;;;18.30;25.40;20.90;93765.00;;;;10267882;28;47169;-59
2022/03/11 20:39:16;;;;;;;5.18;2.78;;;18.40;25.40;20.90;93765.00;;;;10269512;28;48432;-59
2022/03/11 20:44:17;;;;;;;4.53;2.88;;;18.40;25.40;20.90;93771.00;;;;10270296;28;45235;-60
2022/03/11 20:49:17;;;;;;;4.82;3.22;;;18.40;25.40;20.90;93790.00;;;;10268298;28;45571;-59
2022/03/11 20:54:18;;;;;;;5.60;2.45;;;18.40;25.40;20.90;93798.00;;;;10270548;28;45162;-60
2022/03/11 20:59:20;;;;;;;3.83;2.63;;;18.40;25.40;20.90;93808.00;;;;10270459;28;45345;-60
2022/03/11 21:04:20;;;;;;;3.78;2.70;;;18.30;25.40;20.90;93798.00;;;;10270388;28;46411;-60
2022/03/11 21:09:21;;;;;;;3.97;2.67;;;18.30;25.40;20.90;93814.00;;;;10268600;28;45303;-60
2022/03/11 21:14:22;;;;;;;4.22;2.70;;;18.40;25.50;20.90;93799.00;;;;10270356;28;45209;-61
2022/03/11 21:19:24;;;;;;;4.05;2.75;;;18.40;25.50;20.90;93816.00;;;;10268457;28;47126;-60
2022/03/11 21:24:25;;;;;;;4.38;2.90;;;18.40;25.50;20.80;93825.00;;;;10264987;28;46921;-60
2022/03/11 21:29:25;;;;;;;5.18;2.92;;;18.40;25.50;20.90;93801.00;;;;10266732;28;46334;-61
2022/03/11 21:34:26;;;;;;;4.65;2.80;;;18.40;25.50;20.80;93818.00;;;;10269670;28;45271;-60
2022/03/11 21:39:27;;;;;;;4.30;2.72;;;18.30;25.50;20.80;93827.00;;;;10268168;28;45329;-60
2022/03/11 21:44:32;;;;;;;4.07;2.75;;;18.30;25.50;20.80;93823.00;;;;10269876;28;46054;-60
2022/03/11 21:49:33;;;;;;;6.13;2.60;;;18.30;25.50;20.80;93828.00;;;;10268065;28;45324;-60
2022/03/11 21:54:34;;;;;;;4.07;2.72;;;18.30;25.50;20.80;93842.00;;;;10271345;28;45504;-60
2022/03/11 21:59:35;;;;;;;4.18;2.50;;;18.30;25.50;20.80;93843.00;;;;10274555;28;45270;-60
2022/03/11 22:04:36;;;;;;;4.93;2.78;;;18.20;25.60;20.70;93838.00;;;;10274808;28;45413;-59
2022/03/11 22:09:38;;;;;;;3.47;2.47;;;18.20;25.60;20.70;93839.00;;;;10274177;28;47077;-60